Time;durP1;ratioP1;P1;durP2;ratioP2;P2;SDS_P1;SDS_P2;PMS_P1;PMS_P2;Temp;Humidity;BMP_temperature;BMP_pressure;BME280_temperature;BME280_humidity;BME280_pressure;Samples;Min_cycle;Max_cycle;Signal;HPM_P1;HPM_P2
2022/05/29 00:01:31;;;;;;;15.38;4.05;;;;;;;;;;4932065;29;20877;-84
2022/05/29 00:03:57;;;;;;;18.25;4.05;;;;;;;;;;4904462;29;20456;-85
2022/05/29 00:06:41;;;;;;;21.08;4.25;;;;;;;;;;4892229;29;20036;-86
2022/05/29 00:09:09;;;;;;;19.83;4.00;;;;;;;;;;4905399;29;20065;-86
2022/05/29 00:11:36;;;;;;;16.02;3.30;;;;;;;;;;4909365;29;20051;-85
2022/05/29 00:14:03;;;;;;;15.05;3.13;;;;;;;;;;4923344;29;20047;-85
2022/05/29 00:16:29;;;;;;;19.88;3.00;;;;;;;;;;4923910;29;20044;-85
2022/05/29 00:19:02;;;;;;;16.27;3.58;;;;;;;;;;4912905;29;20048;-86
2022/05/29 00:21:31;;;;;;;16.90;3.30;;;;;;;;;;4904187;29;20144;-86
2022/05/29 00:24:15;;;;;;;13.95;4.00;;;;;;;;;;4905597;29;20087;-85
2022/05/29 00:26:51;;;;;;;17.47;3.60;;;;;;;;;;4919359;29;20428;-86
2022/05/29 00:29:35;;;;;;;21.38;4.03;;;;;;;;;;4894145;29;20111;-86
2022/05/29 00:32:01;;;;;;;22.63;3.97;;;;;;;;;;4902433;29;20060;-85
2022/05/29 00:34:38;;;;;;;25.52;3.72;;;;;;;;;;4885573;29;20044;-85
2022/05/29 00:37:05;;;;;;;20.08;4.32;;;;;;;;;;4905385;29;20056;-85
2022/05/29 00:39:39;;;;;;;20.25;4.47;;;;;;;;;;4905646;29;20409;-85
2022/05/29 00:42:06;;;;;;;14.80;3.42;;;;;;;;;;4903171;29;20040;-86
2022/05/29 00:47:31;;;;;;;17.23;3.67;;;;;;;;;;4883342;29;20049;-86
2022/05/29 00:50:08;;;;;;;15.20;3.65;;;;;;;;;;4909584;29;20043;-86
2022/05/29 00:52:35;;;;;;;21.35;3.47;;;;;;;;;;4890209;29;20048;-85
2022/05/29 00:55:31;;;;;;;;;;;;;;;;;;;;;
2022/05/29 00:57:56;;;;;;;15.60;3.13;;;;;;;;;;4898391;29;20052;-85
2022/05/29 01:00:25;;;;;;;13.55;3.05;;;;;;;;;;4915251;29;20045;-86
2022/05/29 01:03:05;;;;;;;17.33;4.57;;;;;;;;;;4923221;29;20108;-85
2022/05/29 01:05:41;;;;;;;19.05;3.00;;;;;;;;;;4901687;29;20053;-86
2022/05/29 01:08:43;;;;;;;11.85;3.03;;;;;;;;;;4905747;29;20064;-86
2022/05/29 01:11:24;;;;;;;14.68;2.80;;;;;;;;;;4847715;29;20157;-86
2022/05/29 01:13:54;;;;;;;12.73;3.03;;;;;;;;;;4883677;29;20069;-85
2022/05/29 01:16:49;;;;;;;10.07;3.17;;;;;;;;;;4884524;29;20048;-87
2022/05/29 01:19:30;;;;;;;22.23;4.40;;;;;;;;;;4862130;29;20052;-87
2022/05/29 01:22:12;;;;;;;302.67;193.73;;;;;;;;;;4892004;29;20036;-87
2022/05/29 01:24:57;;;;;;;185.10;122.75;;;;;;;;;;4867370;29;20065;-86
2022/05/29 01:27:39;;;;;;;121.80;81.20;;;;;;;;;;4879300;29;20108;-86
2022/05/29 01:30:05;;;;;;;92.95;58.58;;;;;;;;;;4881445;29;20084;-85
2022/05/29 01:33:10;;;;;;;113.82;77.80;;;;;;;;;;4895976;29;20099;-86
2022/05/29 01:35:45;;;;;;;44.92;22.65;;;;;;;;;;4801301;29;20138;-87
2022/05/29 01:38:31;;;;;;;29.75;11.20;;;;;;;;;;4811939;29;20050;-86
2022/05/29 01:41:09;;;;;;;36.35;11.00;;;;;;;;;;4827583;29;20058;-85
2022/05/29 01:43:51;;;;;;;23.17;5.85;;;;;;;;;;4807245;29;20110;-87
2022/05/29 01:46:31;;;;;;;14.77;4.13;;;;;;;;;;4829973;29;20622;-86
2022/05/29 01:49:16;;;;;;;20.40;4.75;;;;;;;;;;4814970;29;20086;-85
2022/05/29 01:51:45;;;;;;;18.98;3.80;;;;;;;;;;4810576;29;20054;-86
2022/05/29 01:54:23;;;;;;;15.82;4.10;;;;;;;;;;4809057;29;20097;-86
2022/05/29 01:57:08;;;;;;;14.52;3.25;;;;;;;;;;4825655;29;20042;-85
2022/05/29 01:59:56;;;;;;;16.90;4.50;;;;;;;;;;4838478;29;20057;-86
2022/05/29 02:02:26;;;;;;;19.73;3.85;;;;;;;;;;4930000;29;20057;-87
2022/05/29 02:05:05;;;;;;;;;;;;;;;;;;;;;
2022/05/29 02:07:50;;;;;;;16.70;3.70;;;;;;;;;;4901936;29;20044;-85
2022/05/29 02:10:35;;;;;;;14.98;3.83;;;;;;;;;;4917832;29;20040;-85
2022/05/29 02:13:13;;;;;;;13.02;3.45;;;;;;;;;;4919112;29;20123;-86
2022/05/29 02:15:55;;;;;;;21.52;4.63;;;;;;;;;;4901326;29;20044;-84
2022/05/29 02:18:23;;;;;;;22.23;3.67;;;;;;;;;;4921301;29;20051;-86
2022/05/29 02:20:52;;;;;;;16.55;3.92;;;;;;;;;;4899351;29;20488;-85
2022/05/29 02:23:39;;;;;;;14.52;4.05;;;;;;;;;;4902468;29;20036;-86
2022/05/29 02:26:16;;;;;;;16.02;3.80;;;;;;;;;;4915150;29;20400;-85
2022/05/29 02:29:08;;;;;;;13.63;4.22;;;10.50;99.90;;;;;;4914969;23;20066;-84
2022/05/29 02:31:57;;;;;;;17.60;4.15;;;;;;;;;;4921752;29;20082;-86
2022/05/29 02:34:36;;;;;;;17.80;3.55;;;;;;;;;;4923205;29;20044;-87
2022/05/29 02:37:34;;;;;;;19.83;3.65;;;;;;;;;;4921554;29;20043;-87
2022/05/29 02:40:13;;;;;;;19.77;3.83;;;;;;;;;;4935441;29;20123;-86
2022/05/29 02:42:42;;;;;;;20.52;3.45;;;;;;;;;;4913430;29;20138;-86
2022/05/29 02:45:23;;;;;;;19.83;4.15;;;;;;;;;;4908650;29;20162;-87
2022/05/29 02:48:07;;;;;;;15.13;3.83;;;;;;;;;;4912868;29;20107;-86
2022/05/29 02:50:52;;;;;;;20.45;4.05;;;;;;;;;;4937916;29;20052;-86
2022/05/29 02:53:32;;;;;;;21.10;4.22;;;;;;;;;;4900396;29;20059;-87
2022/05/29 02:56:09;;;;;;;13.77;3.10;;;;;;;;;;4923697;29;20047;-86
2022/05/29 02:58:36;;;;;;;19.52;3.35;;;;;;;;;;4934723;29;20038;-86
2022/05/29 03:01:18;;;;;;;25.23;3.60;;;;;;;;;;4937319;29;20123;-86
2022/05/29 03:03:47;;;;;;;23.70;4.22;;;;;;;;;;4940593;29;20039;-86
2022/05/29 03:06:29;;;;;;;22.33;5.28;;;;;;;;;;4905426;29;20525;-85
2022/05/29 03:09:20;;;;;;;19.20;3.50;;;;;;;;;;4923599;29;20048;-85
2022/05/29 03:11:56;;;;;;;21.33;3.28;;;;;;;;;;4903909;29;20131;-86
2022/05/29 03:14:22;;;;;;;19.90;3.60;;;;;;;;;;4911774;29;20048;-86
2022/05/29 03:17:25;;;;;;;15.60;2.92;;;10.50;99.90;;;;;;4925668;29;20083;-85
2022/05/29 03:20:07;;;;;;;21.23;2.90;;;;;;;;;;4923836;29;20055;-86
2022/05/29 03:22:50;;;;;;;14.38;2.90;;;;;;;;;;4929722;29;20139;-86
2022/05/29 03:25:35;;;;;;;9.43;2.75;;;;;;;;;;4879549;29;20064;-87
2022/05/29 03:28:11;;;;;;;10.68;2.58;;;;;;;;;;4909991;29;20069;-86
2022/05/29 03:30:39;;;;;;;13.18;3.03;;;;;;;;;;4886044;29;20173;-85
2022/05/29 03:33:16;;;;;;;10.77;2.70;;;;;;;;;;4908666;29;20033;-85
2022/05/29 03:35:43;;;;;;;16.88;3.53;;;;;;;;;;4885291;29;20084;-86
2022/05/29 03:38:09;;;;;;;17.65;4.00;;;;;;;;;;4888538;29;20080;-86
2022/05/29 03:40:45;;;;;;;16.73;3.63;;;;;;;;;;4871247;29;20141;-85
2022/05/29 03:43:11;;;;;;;22.83;3.88;;;;;;;;;;4895840;29;20064;-86
2022/05/29 03:45:46;;;;;;;22.05;4.32;;;;;;;;;;4882479;29;20116;-86
2022/05/29 03:48:12;;;;;;;22.08;3.90;;;;;;;;;;4901364;29;20053;-86
2022/05/29 03:50:38;;;;;;;24.08;3.70;;;;;;;;;;4894469;29;20069;-85
2022/05/29 03:53:13;;;;;;;25.63;4.00;;;;;;;;;;4900650;29;20069;-87
2022/05/29 03:55:39;;;;;;;26.23;4.00;;;;;;;;;;4892813;29;20081;-86
2022/05/29 03:58:05;;;;;;;19.08;3.97;;;;;;;;;;4921043;29;20115;-86
2022/05/29 04:00:40;;;;;;;13.23;2.90;;;;;;;;;;4922010;29;20607;-86
2022/05/29 04:03:07;;;;;;;17.02;2.83;;;;;;;;;;4937792;29;20051;-85
2022/05/29 04:05:42;;;;;;;10.90;2.47;;;;;;;;;;4920628;29;20044;-85
2022/05/29 04:13:50;;;;;;;16.13;2.67;;;;;;;;;;4934909;29;20070;-86
2022/05/29 04:16:16;;;;;;;8.50;2.03;;;;;;;;;;4937803;29;21153;-86
2022/05/29 04:18:42;;;;;;;16.67;2.25;;;;;;;;;;4904785;29;20035;-86
2022/05/29 04:21:15;;;;;;;15.57;2.97;;;;;;;;;;4923052;29;20047;-86
2022/05/29 04:23:41;;;;;;;14.00;2.67;;;;;;;;;;4920854;29;20048;-86
2022/05/29 04:26:20;;;;;;;13.48;2.72;;;;;;;;;;4938688;29;20711;-86
2022/05/29 04:28:49;;;;;;;12.52;2.90;;;;;;;;;;4935267;29;20047;-87
2022/05/29 04:32:59;;;;;;;16.35;3.08;;;;;;;;;;4937013;29;20064;-84
2022/05/29 04:34:30;;;;;;;15.15;3.38;;;;;;;;;;4919979;29;20075;-86
2022/05/29 04:37:15;;;;;;;18.98;3.13;;;;;;;;;;4936765;29;20407;-85
2022/05/29 04:39:50;;;;;;;18.33;3.80;;;;;;;;;;4937027;29;20043;-85
2022/05/29 04:42:16;;;;;;;25.00;4.30;;;;;;;;;;4928823;29;20190;-87
2022/05/29 04:44:42;;;;;;;17.33;2.88;;;;;;;;;;4936454;29;20044;-86
2022/05/29 04:47:37;;;;;;;24.02;3.63;;;;;;;;;;4919728;29;20054;-86
2022/05/29 04:50:04;;;;;;;21.52;3.83;;;;;;;;;;4902087;29;20074;-86
2022/05/29 04:52:39;;;;;;;21.13;3.22;;;;;;;;;;4935962;29;20040;-86
2022/05/29 04:55:06;;;;;;;20.00;3.88;;;;;;;;;;4929969;29;20043;-86
2022/05/29 04:57:32;;;;;;;13.23;3.03;;;;;;;;;;4919083;29;20071;-86
2022/05/29 05:00:28;;;;;;;19.60;3.83;;;;;;;;;;4931679;29;20052;-86
2022/05/29 05:02:55;;;;;;;20.98;3.58;;;;;;;;;;4935611;29;20049;-86
2022/05/29 05:05:30;;;;;;;20.13;3.47;;;;;;;;;;4950495;28;20110;-85
2022/05/29 05:07:57;;;;;;;14.88;2.60;;;;;;;;;;4934728;29;20051;-87
2022/05/29 05:10:24;;;;;;;13.95;3.85;;;;;;;;;;4921863;28;20083;-86
2022/05/29 05:12:51;;;;;;;19.48;2.38;;;;;;;;;;4920565;28;20046;-86
2022/05/29 05:15:18;;;;;;;18.33;2.78;;;;;;;;;;4937653;29;20078;-85
2022/05/29 05:17:44;;;;;;;16.17;3.17;;;;;;;;;;4946525;28;20107;-85
2022/05/29 05:20:22;;;;;;;10.40;2.75;;;;;;;;;;4955188;29;20114;-87
2022/05/29 05:22:48;;;;;;;13.80;2.50;;;;;;;;;;4950620;28;20036;-86
2022/05/29 05:25:14;;;;;;;19.88;3.42;;;;;;;;;;4924100;29;20047;-86
2022/05/29 05:27:40;;;;;;;19.48;2.70;;;;;;;;;;4934476;29;20493;-86
2022/05/29 05:30:07;;;;;;;14.48;2.75;;;;;;;;;;4919874;29;20048;-87
2022/05/29 05:32:34;;;;;;;17.95;3.90;;;;;;;;;;4906201;29;20146;-87
2022/05/29 05:35:03;;;;;;;17.52;3.15;;;;;;;;;;4920579;29;20149;-87
2022/05/29 05:37:30;;;;;;;16.85;2.90;;;;;;;;;;4902234;29;20547;-87
2022/05/29 05:39:56;;;;;;;11.73;2.53;;;;;;;;;;4939020;29;20043;-85
2022/05/29 05:42:22;;;;;;;20.02;2.95;;;;;;;;;;4922849;29;20036;-87
2022/05/29 05:44:48;;;;;;;18.13;2.55;;;;;;;;;;4923571;29;20047;-87
2022/05/29 05:47:14;;;;;;;11.57;2.63;;;;;;;;;;4910275;29;20071;-87
2022/05/29 05:49:40;;;;;;;16.17;2.80;;;;;;;;;;4930201;29;20066;-87
2022/05/29 05:52:09;;;;;;;13.75;3.00;;;;;;;;;;4916717;29;20027;-87
2022/05/29 05:54:35;;;;;;;13.77;2.40;;;;;;;;;;4934556;29;20039;-86
2022/05/29 05:57:03;;;;;;;13.18;2.75;;;;;;;;;;4940196;29;20047;-86
2022/05/29 05:59:32;;;;;;;16.23;2.55;;;;;;;;;;4920079;29;20055;-87
2022/05/29 06:02:07;;;;;;;17.45;3.17;;;;;;;;;;4922147;29;20036;-88
2022/05/29 06:04:33;;;;;;;12.25;3.13;;;;;;;;;;4920670;29;20047;-86
2022/05/29 06:06:59;;;;;;;15.55;2.63;;;;;;;;;;4920910;29;20075;-87
2022/05/29 06:09:25;;;;;;;12.32;2.25;;;;;;;;;;4942286;23;20523;-86
2022/05/29 06:11:52;;;;;;;10.48;2.42;;;;;;;;;;4923618;29;20139;-86
2022/05/29 06:14:19;;;;;;;12.85;2.40;;;;;;;;;;4888992;29;20055;-86
2022/05/29 06:16:45;;;;;;;15.60;2.83;;;;;;;;;;4901154;29;20066;-88
2022/05/29 06:19:11;;;;;;;10.50;2.05;;;;;;;;;;4903314;29;20040;-89
2022/05/29 06:21:50;;;;;;;12.60;2.50;;;;;;;;;;4887503;29;20051;-87
2022/05/29 06:24:16;;;;;;;13.65;2.70;;;;;;;;;;4900406;29;20086;-89
2022/05/29 06:26:42;;;;;;;13.40;2.22;;;;;;;;;;4914737;29;20551;-87
2022/05/29 06:29:18;;;;;;;15.52;2.92;;;;;;;;;;4886428;29;20052;-87
2022/05/29 06:31:44;;;;;;;15.82;2.83;;;;;;;;;;4917129;29;20548;-87
2022/05/29 06:34:10;;;;;;;17.02;2.38;;;;;;;;;;4918972;29;20048;-86
2022/05/29 06:36:36;;;;;;;12.55;2.25;;;;;;;;;;4918996;29;20052;-87
2022/05/29 06:39:03;;;;;;;12.82;2.35;;;;;;;;;;4870263;29;20383;-86
2022/05/29 06:41:43;;;;;;;12.07;2.35;;;;;;;;;;4918398;29;20059;-86
2022/05/29 06:44:10;;;;;;;11.30;2.08;;;;;;;;;;4913526;29;20059;-87
2022/05/29 06:46:36;;;;;;;16.50;3.30;;;;;;;;;;4899940;29;20041;-84
2022/05/29 06:49:03;;;;;;;17.25;2.67;;;;;;;;;;4915933;29;20040;-88
2022/05/29 06:51:29;;;;;;;13.07;2.42;;;;;;;;;;4888719;29;20036;-87
2022/05/29 06:53:56;;;;;;;19.10;3.05;;;;;;;;;;4901056;29;20048;-86
2022/05/29 06:56:22;;;;;;;17.02;2.40;;;;;;;;;;4901067;29;20075;-87
2022/05/29 06:59:03;;;;;;;11.80;2.50;;;;;;;;;;4896274;29;20123;-86
2022/05/29 07:07:36;;;;;;;14.93;2.30;;;;;;;;;;4911780;29;20527;-85
2022/05/29 07:10:08;;;;;;;18.63;2.92;;;;;;;;;;4916565;29;20071;-86
2022/05/29 07:12:36;;;;;;;13.88;2.40;;;;;;;;;;4918359;29;20151;-85
2022/05/29 07:15:18;;;;;;;8.70;2.25;;;;;;;;;;4888234;29;20056;-85
2022/05/29 07:17:56;;;;;;;17.17;2.75;;;;;;;;;;4903761;29;20082;-85
2022/05/29 07:20:23;;;;;;;12.10;2.25;;;;;;;;;;4922443;29;20075;-87
2022/05/29 07:23:04;;;;;;;16.30;2.75;;;;;;;;;;4914588;29;20453;-86
2022/05/29 07:25:42;;;;;;;18.67;2.50;;;;;;;;;;4888205;29;20048;-86
2022/05/29 07:28:08;;;;;;;15.07;3.47;;;;;;;;;;4900780;29;21833;-84
2022/05/29 07:30:48;;;;;;;11.63;2.28;;;;;;;;;;4898299;29;20044;-86
2022/05/29 07:33:27;;;;;;;12.98;2.47;;;;;;;;;;4900792;29;20056;-86
2022/05/29 07:35:53;;;;;;;7.38;1.52;;;;;;;;;;4901647;29;20036;-87
2022/05/29 07:38:20;;;;;;;5.65;1.45;;;;;;;;;;4887793;29;20069;-87
2022/05/29 07:40:56;;;;;;;8.25;1.60;;;;;;;;;;4884626;29;20681;-86
2022/05/29 07:43:22;;;;;;;12.75;2.05;;;;;;;;;;4903443;29;20059;-87
2022/05/29 07:45:56;;;;;;;9.23;2.05;;;;;;;;;;4902996;29;20500;-87
2022/05/29 07:48:41;;;;;;;6.20;1.73;;;;;;;;;;4904872;29;20056;-87
2022/05/29 07:51:07;;;;;;;11.05;1.67;;;;;;;;;;4883058;29;20109;-86
2022/05/29 07:53:33;;;;;;;6.47;1.52;;;;;;;;;;4901597;29;20036;-85
2022/05/29 07:56:11;;;;;;;15.10;2.28;;;;;;;;;;4899881;29;20040;-87
2022/05/29 07:58:40;;;;;;;14.20;2.20;;;;;;;;;;4902771;29;20119;-87
2022/05/29 08:01:09;;;;;;;10.15;1.83;;;;;;;;;;4872888;29;20040;-90
2022/05/29 08:03:54;;;;;;;7.82;1.95;;;;;;;;;;4887087;29;20457;-89
2022/05/29 08:06:34;;;;;;;9.52;2.67;;;;;;;;;;4903766;29;20048;-91
2022/05/29 08:09:00;;;;;;;9.30;2.38;;;;;;;;;;4918582;29;20059;-89
2022/05/29 08:11:58;;;;;;;10.35;1.90;;;;;;;;;;4941324;29;20115;-91
2022/05/29 08:14:26;;;;;;;11.25;2.40;;;;;;;;;;4945812;29;20370;-87
2022/05/29 08:17:09;;;;;;;11.00;2.22;;;;;;;;;;4947472;29;20060;-89
2022/05/29 08:19:41;;;;;;;10.07;2.15;;;;;;;;;;4935073;29;20052;-87
2022/05/29 08:22:16;;;;;;;7.13;1.17;;;;;;;;;;4927660;29;21133;-89
2022/05/29 08:30:38;;;;;;;9.80;2.20;;;;;;;;;;4942575;29;20051;-88
2022/05/29 08:33:13;;;;;;;12.90;2.63;;;;;;;;;;4921967;29;20482;-87
2022/05/29 08:35:41;;;;;;;9.02;1.58;;;;;;;;;;4941657;29;20043;-88
2022/05/29 08:38:08;;;;;;;13.60;2.28;;;;;;;;;;4937702;29;20039;-85
2022/05/29 08:40:40;;;;;;;11.95;2.53;;;;;;;;;;4936324;29;21164;-87
2022/05/29 08:43:08;;;;;;;9.40;1.65;;;;;;;;;;4938285;29;20390;-86
2022/05/29 08:45:34;;;;;;;10.10;1.85;;;;;;;;;;4906030;29;20557;-87
2022/05/29 08:48:01;;;;;;;13.27;2.05;;;;;;;;;;4926781;29;20119;-87
2022/05/29 08:50:38;;;;;;;7.82;1.63;;;;;;;;;;4939594;29;20058;-87
2022/05/29 08:53:07;;;;;;;14.73;2.40;;;;;;;;;;4925072;29;20091;-87
2022/05/29 08:55:42;;;;;;;14.05;2.42;;;;;;;;;;4940562;29;20051;-86
2022/05/29 08:58:27;;;;;;;16.45;2.15;;;;;;;;;;4928514;29;20127;-85
2022/05/29 09:01:15;;;;;;;8.13;1.70;;;;;;;;;;4925026;29;20919;-86
2022/05/29 09:03:48;;;;;;;17.45;2.80;;;;;;;;;;4922192;29;20047;-87
2022/05/29 09:06:33;;;;;;;11.70;2.63;;;;;;;;;;4919576;29;20128;-86
2022/05/29 09:09:05;;;;;;;15.07;2.35;;;;;;;;;;4919856;29;20043;-86
2022/05/29 09:11:31;;;;;;;13.90;1.92;;;;;;;;;;4923213;23;20084;-85
2022/05/29 09:14:07;;;;;;;14.88;1.63;;;;;;;;;;4899035;29;20106;-86
2022/05/29 09:16:39;;;;;;;8.25;2.25;;;;;;;;;;4921634;29;20050;-87
2022/05/29 09:19:21;;;;;;;12.75;1.80;;;;;;;;;;4902474;29;20107;-85
2022/05/29 09:21:55;;;;;;;11.05;1.77;;;;;;;;;;4930836;29;20036;-87
2022/05/29 09:24:44;;;;;;;10.00;1.65;;;;;;;;;;4926587;29;20131;-86
2022/05/29 09:27:11;;;;;;;13.70;1.70;;;;;;;;;;4900057;29;20056;-86
2022/05/29 09:29:37;;;;;;;9.38;1.17;;;;;;;;;;4919814;29;20055;-87
2022/05/29 09:32:10;;;;;;;9.18;1.33;;;;;;;;;;4925938;29;20044;-86
2022/05/29 09:34:37;;;;;;;7.18;1.65;;;;;;;;;;4934231;29;20053;-85
2022/05/29 09:37:21;;;;;;;10.15;1.50;;;;;;;;;;4911361;29;20038;-86
2022/05/29 09:39:49;;;;;;;9.20;1.90;;;;;;;;;;4935558;29;20044;-87
2022/05/29 09:42:19;;;;;;;10.65;1.58;;;;;;;;;;4949722;29;20063;-87
2022/05/29 09:45:06;;;;;;;17.38;2.00;;;;;;;;;;4941053;29;20036;-87
2022/05/29 09:50:18;;;;;;;9.45;1.63;;;;;;;;;;4942020;29;20051;-86
2022/05/29 09:52:45;;;;;;;4.47;1.10;;;;;;;;;;4915841;29;20100;-86
2022/05/29 09:55:32;;;;;;;12.27;2.35;;;;;;;;;;4924356;29;20061;-86
2022/05/29 09:58:13;;;;;;;6.82;1.48;;;;;;;;;;4907614;29;20056;-85
2022/05/29 10:00:42;;;;;;;6.88;1.10;;;;;;;;;;4932012;29;20047;-87
2022/05/29 10:03:11;;;;;;;14.98;1.60;;;;;;;;;;4907142;29;20040;-87
2022/05/29 10:05:42;;;;;;;8.75;1.63;;;;;;;;;;4909826;29;20516;-87
2022/05/29 10:08:38;;;;;;;11.43;2.20;;;;;;;;;;4933911;29;20062;-87
2022/05/29 10:11:16;;;;;;;14.68;2.88;;;;;;;;;;4914335;29;20064;-87
2022/05/29 10:13:44;;;;;;;19.15;1.88;;;;;;;;;;4922880;29;20056;-87
2022/05/29 10:16:11;;;;;;;11.38;1.50;;;;;;;;;;4924896;28;20172;-87
2022/05/29 10:18:49;;;;;;;9.18;1.48;;;;;;;;;;4921312;29;20111;-87
2022/05/29 10:31:30;;;;;;;10.38;1.85;;;;;;;;;;4865526;29;20048;-87
2022/05/29 10:34:10;;;;;;;8.15;2.45;;;;;;;;;;4920454;29;20122;-88
2022/05/29 10:36:44;;;;;;;11.77;1.73;;;;;;;;;;4934554;29;20043;-88
2022/05/29 10:42:00;;;;;;;14.35;2.03;;;;;;;;;;4946547;29;19985;-87
2022/05/29 10:44:41;;;;;;;12.85;1.88;;;;;;;;;;4941390;29;20047;-87
2022/05/29 10:47:25;;;;;;;14.25;2.67;;;;;;;;;;4933449;29;20055;-87
2022/05/29 10:53:30;;;;;;;18.92;1.98;;;;;;;;;;4941592;29;21402;-88
2022/05/29 10:56:02;;;;;;;10.80;2.30;;;;;;;;;;4931059;29;20039;-87
2022/05/29 11:05:55;;;;;;;10.77;2.08;;;;;;;;;;4946050;23;20083;-88
2022/05/29 11:08:27;;;;;;;8.50;1.52;;;;;;;;;;4930162;29;20478;-88
2022/05/29 11:14:48;;;;;;;10.48;1.85;;;;;;;;;;4927526;29;20481;-88
2022/05/29 11:17:35;;;;;;;16.08;1.88;;;;;;;;;;4896805;29;20226;-90
2022/05/29 11:20:26;;;;;;;12.00;1.52;;;;;;;;;;4968326;23;20075;-87
2022/05/29 11:22:52;;;;;;;7.57;1.73;;;;;;;;;;4923064;29;20072;-85
2022/05/29 11:25:52;;;;;;;8.45;1.10;;;;;;;;;;4927601;29;20083;-87
2022/05/29 11:34:53;;;;;;;11.32;1.45;;;;;;;;;;4965371;23;20059;-88
2022/05/29 11:37:22;;;;;;;10.32;1.88;;;;;;;;;;4961189;28;20122;-88
2022/05/29 11:39:50;;;;;;;7.75;1.90;;;;;;;;;;4931616;28;20132;-85
2022/05/29 11:42:35;;;;;;;12.93;2.28;;;;;;;;;;4944319;28;20062;-88
2022/05/29 11:45:05;;;;;;;12.52;2.08;;;;;;;;;;4948916;28;20032;-86
2022/05/29 11:53:29;;;;;;;13.05;2.65;;;;;;;;;;4903999;29;20041;-89
2022/05/29 11:55:56;;;;;;;11.02;1.92;;;;;;;;;;4911866;29;20032;-89
2022/05/29 11:58:34;;;;;;;8.20;1.92;;;;;;;;;;4909189;29;20048;-87
2022/05/29 12:01:03;;;;;;;9.82;1.77;;;;;;;;;;4925178;29;20166;-88
2022/05/29 12:03:55;;;;;;;10.18;2.28;;;;;;;;;;4925283;29;20059;-89
2022/05/29 12:06:28;;;;;;;7.50;1.88;;;;;;;;;;4924581;29;20096;-88
2022/05/29 12:09:14;;;;;;;8.88;1.98;;;;;;;;;;4909756;29;20055;-89
2022/05/29 12:11:46;;;;;;;15.88;2.42;;;;;;;;;;4897808;29;20105;-88
2022/05/29 12:14:34;;;;;;;9.60;1.73;;;;;;;;;;4923376;29;20047;-88
2022/05/29 12:17:21;;;;;;;11.55;1.85;;;;;;;;;;4904634;29;20115;-88
2022/05/29 12:20:01;;;;;;;14.35;2.20;;;;;;;;;;4926443;29;20052;-89
2022/05/29 12:22:55;;;;;;;15.65;2.95;;;;;;;;;;4923557;29;20052;-90
2022/05/29 12:25:25;;;;;;;12.57;1.90;;;;;;;;;;4871251;29;20158;-88
2022/05/29 12:28:10;;;;;;;13.60;1.92;;;;;;;;;;4924539;29;20047;-87
2022/05/29 12:30:44;;;;;;;10.27;1.88;;;;;;;;;;4919209;29;20044;-88
2022/05/29 12:33:22;;;;;;;14.45;2.10;;;;;;;;;;4922873;29;20063;-88
2022/05/29 12:35:56;;;;;;;15.00;2.65;;;;;;;;;;4904258;29;20078;-88
2022/05/29 12:38:41;;;;;;;10.40;3.40;;;;;;;;;;4910317;29;21201;-88
2022/05/29 12:41:30;;;;;;;12.55;2.65;;;;;;;;;;4906434;29;20516;-88
2022/05/29 12:43:58;;;;;;;20.15;2.60;;;;;;;;;;4903144;29;20047;-88
2022/05/29 12:46:56;;;;;;;11.65;3.53;;;13.00;99.90;;;;;;4901130;29;20052;-90
2022/05/29 12:49:49;;;;;;;9.07;2.25;;;;;;;;;;4905235;29;20060;-90
2022/05/29 12:52:18;;;;;;;20.77;9.20;;;;;;;;;;4907882;29;20060;-86
2022/05/29 12:55:04;;;;;;;14.15;4.20;;;;;;;;;;4905085;29;20260;-87
2022/05/29 12:57:50;;;;;;;12.63;2.88;;;;;;;;;;4909017;29;20044;-87
2022/05/29 13:00:31;;;;;;;13.93;2.35;;;;;;;;;;4922962;29;20459;-88
2022/05/29 13:06:26;;;;;;;9.43;1.77;;;;;;;;;;4927735;29;20078;-84
2022/05/29 13:09:17;;;;;;;14.52;1.98;;;;;;;;;;4902895;29;20078;-84
2022/05/29 13:11:57;;;;;;;6.55;1.58;;;;;;;;;;4912266;29;20127;-87
2022/05/29 13:14:25;;;;;;;11.05;2.63;;;;;;;;;;4910946;29;20498;-86
2022/05/29 13:17:09;;;;;;;11.93;1.95;;;;;;;;;;4894080;29;20048;-84
2022/05/29 13:19:55;;;;;;;9.65;2.13;;;;;;;;;;4895640;29;20593;-83
2022/05/29 13:22:58;;;;;;;11.50;1.85;;;;;;;;;;4912465;29;20052;-84
2022/05/29 13:25:51;;;;;;;7.03;2.03;;;;;;;;;;4896005;29;20091;-86
2022/05/29 13:49:34;;;;;;;10.98;2.25;;;;;;;;;;4911408;29;20096;-87
2022/05/29 13:52:17;;;;;;;8.85;2.03;;;;;;;;;;4901101;29;20118;-84
2022/05/29 14:04:06;;;;;;;7.72;2.35;;;;;;;;;;4891843;29;20047;-85
2022/05/29 14:06:40;;;;;;;17.77;3.13;;;;;;;;;;4894816;29;20051;-85
2022/05/29 14:12:39;;;;;;;9.90;2.42;;;;;;;;;;4899200;29;20064;-85
2022/05/29 14:15:25;;;;;;;11.15;2.45;;;;;;;;;;4897538;29;20110;-85
2022/05/29 14:18:10;;;;;;;12.82;2.80;;;;;;;;;;4899183;29;20055;-84
2022/05/29 14:24:33;;;;;;;16.42;2.83;;;;;;;;;;4919883;29;20099;-85
2022/05/29 14:27:21;;;;;;;13.32;2.53;;;;;;;;;;4890852;29;20092;-86
2022/05/29 14:29:51;;;;;;;13.38;2.28;;;;;;;;;;4903093;29;20063;-85
2022/05/29 14:32:51;;;;;;;15.90;2.33;;;;;;;;;;4893192;29;20040;-85
2022/05/29 14:35:32;;;;;;;18.10;3.38;;;;;;;;;;4898664;29;20071;-85
2022/05/29 14:38:05;;;;;;;13.77;2.47;;;;;;;;;;4909587;29;20501;-84
2022/05/29 14:40:37;;;;;;;16.60;2.70;;;;;;;;;;4900280;29;20080;-85
2022/05/29 14:43:08;;;;;;;11.85;2.50;;;;;;;;;;4883777;29;20370;-82
2022/05/29 14:45:42;;;;;;;11.43;1.92;;;;;;;;;;4913319;29;20055;-85
2022/05/29 14:48:39;;;;;;;13.70;2.22;;;13.20;99.90;;;;;;4898904;29;20052;-85
2022/05/29 14:51:15;;;;;;;11.25;2.03;;;;;;;;;;4916036;29;20052;-85
2022/05/29 14:53:49;;;;;;;17.27;2.63;;;;;;;;;;4901222;29;20108;-85
2022/05/29 14:56:35;;;;;;;14.77;2.30;;;;;;;;;;4914881;29;20075;-84
2022/05/29 14:59:15;;;;;;;18.05;2.80;;;;;;;;;;4912187;29;20044;-84
2022/05/29 15:01:42;;;;;;;19.23;4.57;;;;;;;;;;4914791;29;20047;-87
2022/05/29 15:04:14;;;;;;;14.68;2.30;;;;;;;;;;4886969;29;20500;-88
2022/05/29 15:12:39;;;;;;;13.13;2.25;;;;;;;;;;4902467;29;20111;-86
2022/05/29 15:15:26;;;;;;;13.43;2.10;;;;;;;;;;4916090;29;20056;-85
2022/05/29 15:17:53;;;;;;;10.05;2.53;;;;;;;;;;4897529;29;20425;-87
2022/05/29 15:26:10;;;;;;;11.05;2.38;;;;;;;;;;4917163;29;20072;-86
2022/05/29 15:28:38;;;;;;;13.50;2.03;;;;;;;;;;4924108;29;20044;-85
2022/05/29 15:31:09;;;;;;;12.85;2.42;;;;;;;;;;4925460;29;20055;-85
2022/05/29 15:33:44;;;;;;;13.68;2.63;;;;;;;;;;4910235;29;20056;-86
2022/05/29 15:36:19;;;;;;;13.70;2.08;;;;;;;;;;4933633;29;20056;-84
2022/05/29 15:39:16;;;;;;;15.73;3.08;;;;;;;;;;4911288;29;20123;-86
2022/05/29 15:42:15;;;;;;;9.35;1.58;;;;;;;;;;4931882;29;20072;-84
2022/05/29 15:45:00;;;;;;;14.85;2.00;;;;;;;;;;4905762;29;20056;-86
2022/05/29 15:47:53;;;;;;;9.30;2.92;;;;;;;;;;4928069;29;20148;-86
2022/05/29 15:50:27;;;;;;;8.48;1.73;;;;;;;;;;4924714;29;20111;-84
2022/05/29 15:53:36;;;;;;;9.05;1.70;;;;;;;;;;4922425;29;20051;-85
2022/05/29 15:56:34;;;;;;;15.77;2.28;;;;;;;;;;4911953;29;20093;-84
2022/05/29 15:59:16;;;;;;;9.52;2.05;;;;;;;;;;4876700;29;20040;-85
2022/05/29 16:02:00;;;;;;;12.23;2.15;;;;;;;;;;4907009;29;20056;-86
2022/05/29 16:04:32;;;;;;;12.13;2.08;;;;;;;;;;4909689;29;20052;-84
2022/05/29 16:07:00;;;;;;;15.00;2.45;;;;;;;;;;4920906;29;20058;-85
2022/05/29 16:09:27;;;;;;;14.20;2.40;;;;;;;;;;4922006;29;20052;-86
2022/05/29 16:11:55;;;;;;;9.60;1.85;;;;;;;;;;4914095;29;20559;-85
2022/05/29 16:14:43;;;;;;;11.43;2.50;;;;;;;;;;4887985;29;20094;-84
2022/05/29 16:17:12;;;;;;;12.98;2.25;;;;;;;;;;4896275;29;20037;-86
2022/05/29 16:19:47;;;;;;;8.38;1.83;;;;;;;;;;4917145;29;20107;-84
2022/05/29 16:22:33;;;;;;;12.80;2.53;;;;;;;;;;4912716;29;20505;-84
2022/05/29 16:25:07;;;;;;;11.73;2.75;;;;;;;;;;4899478;29;20051;-83
2022/05/29 16:27:40;;;;;;;10.13;2.13;;;;;;;;;;4916034;29;20068;-85
2022/05/29 16:30:07;;;;;;;11.93;2.00;;;;;;;;;;4919397;29;20110;-84
2022/05/29 16:32:45;;;;;;;12.32;2.20;;;;;;;;;;4915211;29;20754;-86
2022/05/29 16:35:18;;;;;;;15.30;2.47;;;;;;;;;;4911751;29;20457;-84
2022/05/29 16:49:28;;;;;;;9.90;2.00;;;;;;;;;;4906718;29;20052;-84
2022/05/29 16:51:59;;;;;;;11.93;2.17;;;;;;;;;;4883761;29;20044;-85
2022/05/29 16:54:37;;;;;;;14.30;2.38;;;;;;;;;;4899435;29;20052;-85
2022/05/29 16:57:06;;;;;;;10.52;2.20;;;;;;;;;;4902928;29;20551;-83
2022/05/29 16:59:47;;;;;;;17.13;2.72;;;;;;;;;;4905869;29;20076;-84
2022/05/29 17:02:13;;;;;;;12.40;2.22;;;;;;;;;;4892578;29;20051;-86
2022/05/29 17:04:57;;;;;;;16.52;2.88;;;;;;;;;;4911868;29;20055;-85
2022/05/29 17:07:52;;;;;;;10.68;2.15;;;;;;;;;;4893539;29;20512;-86
2022/05/29 17:10:40;;;;;;;10.27;3.08;;;;;;;;;;4899840;29;20126;-86
2022/05/29 17:13:16;;;;;;;11.63;1.75;;;;;;;;;;4895345;29;20044;-85
2022/05/29 17:15:42;;;;;;;15.35;2.13;;;;;;;;;;4897209;29;20051;-85
2022/05/29 17:18:09;;;;;;;12.43;2.55;;;;;;;;;;4913783;29;20036;-85
2022/05/29 17:20:50;;;;;;;15.75;2.17;;;;;;;;;;4896355;29;20134;-85
2022/05/29 17:23:39;;;;;;;15.23;2.78;;;;;;;;;;4893184;29;20052;-87
2022/05/29 17:26:15;;;;;;;17.38;2.28;;;;;;;;;;4883087;29;20052;-85
2022/05/29 17:28:44;;;;;;;15.65;3.03;;;;;;;;;;4897572;29;20044;-85